createdAt,value
2018-03-31T00:01:55.897Z,70.00
2018-03-31T00:04:24.241Z,69.70
2018-03-31T00:06:52.267Z,69.70
2018-03-31T00:09:21.044Z,69.50
2018-03-31T00:11:49.064Z,69.40
2018-03-31T00:14:18.126Z,69.40
2018-03-31T00:16:46.158Z,69.50
2018-03-31T00:19:15.224Z,69.40
2018-03-31T00:21:43.766Z,69.40
2018-03-31T00:24:12.834Z,69.70
2018-03-31T00:26:40.876Z,69.60
2018-03-31T00:29:09.182Z,69.80
2018-03-31T00:31:37.490Z,69.60
2018-03-31T00:34:05.544Z,69.80
2018-03-31T00:36:33.833Z,70.80
2018-03-31T00:39:02.134Z,70.90
2018-03-31T00:41:30.137Z,71.00
2018-03-31T00:43:58.444Z,70.80
2018-03-31T00:46:26.741Z,70.80
2018-03-31T00:48:55.059Z,70.80
2018-03-31T00:51:23.344Z,71.00
2018-03-31T00:53:51.646Z,71.00
2018-03-31T00:56:19.687Z,71.00
2018-03-31T00:58:48.170Z,71.60
2018-03-31T01:01:16.964Z,71.20
2018-03-31T01:03:45.307Z,71.10
2018-03-31T01:06:14.351Z,71.00
2018-03-31T01:08:42.707Z,71.00
2018-03-31T01:11:11.801Z,71.00
2018-03-31T01:13:40.856Z,71.00
2018-03-31T01:16:08.881Z,71.10
2018-03-31T01:18:37.947Z,71.00
2018-03-31T01:21:06.287Z,71.00
2018-03-31T01:23:34.308Z,71.00
2018-03-31T01:26:02.598Z,71.10
2018-03-31T01:28:30.628Z,71.20
2018-03-31T01:30:58.655Z,71.10
2018-03-31T01:33:26.698Z,71.20
2018-03-31T01:35:54.985Z,71.00
2018-03-31T01:38:23.313Z,71.10
2018-03-31T01:40:51.301Z,71.30
2018-03-31T01:43:19.607Z,71.10
2018-03-31T01:45:47.898Z,71.20
2018-03-31T01:48:15.910Z,71.40
2018-03-31T01:50:44.023Z,71.30
2018-03-31T01:53:12.327Z,71.50
2018-03-31T01:55:40.843Z,71.40
2018-03-31T01:58:09.128Z,71.50
2018-03-31T02:00:37.459Z,71.60
2018-03-31T02:03:05.793Z,71.40
2018-03-31T02:05:34.082Z,71.40
2018-03-31T02:08:02.388Z,71.40
2018-03-31T02:10:31.488Z,72.30
2018-03-31T02:12:59.496Z,71.40
2018-03-31T02:15:27.801Z,71.50
2018-03-31T02:17:55.897Z,71.30
2018-03-31T02:20:24.962Z,71.40
2018-03-31T02:22:53.270Z,71.40
2018-03-31T02:25:21.803Z,71.60
2018-03-31T02:27:50.093Z,71.50
2018-03-31T02:30:18.101Z,71.40
2018-03-31T02:32:46.404Z,71.50
2018-03-31T02:35:14.404Z,71.60
2018-03-31T02:37:42.724Z,71.60
2018-03-31T02:40:11.777Z,71.90
2018-03-31T02:42:40.095Z,71.90
2018-03-31T02:45:08.886Z,72.00
2018-03-31T02:47:37.192Z,72.00
2018-03-31T02:50:05.482Z,72.00
2018-03-31T02:52:33.763Z,71.80
2018-03-31T02:55:01.809Z,71.70
2018-03-31T02:57:29.853Z,71.30
2018-03-31T02:59:58.935Z,71.20
2018-03-31T03:02:26.961Z,71.10
2018-03-31T03:04:54.969Z,70.90
2018-03-31T03:07:23.284Z,70.80
2018-03-31T03:09:51.553Z,70.60
2018-03-31T03:12:19.853Z,70.60
2018-03-31T03:14:48.642Z,70.90
2018-03-31T03:17:16.397Z,70.50
2018-03-31T03:19:44.161Z,70.50
2018-03-31T03:22:11.944Z,70.50
2018-03-31T03:24:39.709Z,70.40
2018-03-31T03:27:07.502Z,70.80
2018-03-31T03:29:35.297Z,70.90
2018-03-31T03:32:03.075Z,71.00
2018-03-31T03:34:30.903Z,71.10
2018-03-31T03:36:59.436Z,71.50
2018-03-31T03:39:27.377Z,71.50
2018-03-31T03:41:55.909Z,71.60
2018-03-31T03:44:23.869Z,71.50
2018-03-31T03:46:51.651Z,71.50
2018-03-31T03:49:19.431Z,71.40
2018-03-31T03:51:47.224Z,71.50
2018-03-31T03:54:15.003Z,71.70
2018-03-31T03:56:42.784Z,71.80
2018-03-31T03:59:10.552Z,71.70
2018-03-31T04:01:38.337Z,71.70
2018-03-31T04:04:06.116Z,71.90
2018-03-31T04:06:33.870Z,72.10
2018-03-31T04:09:01.710Z,72.20
2018-03-31T04:11:29.485Z,72.60
2018-03-31T04:13:57.249Z,72.80
2018-03-31T04:16:25.040Z,73.00
2018-03-31T04:18:53.575Z,73.30
2018-03-31T04:21:21.359Z,73.20
2018-03-31T04:23:49.965Z,73.10
2018-03-31T04:26:17.735Z,73.10
2018-03-31T04:28:45.506Z,72.80
2018-03-31T04:31:13.272Z,72.80
2018-03-31T04:33:41.052Z,72.70
2018-03-31T04:36:08.812Z,72.70
2018-03-31T04:38:36.572Z,72.60
2018-03-31T04:41:05.157Z,72.80
2018-03-31T04:43:33.720Z,72.80
2018-03-31T04:46:01.508Z,72.80
2018-03-31T04:48:29.517Z,72.90
2018-03-31T04:50:57.045Z,73.00
2018-03-31T04:53:24.577Z,73.00
2018-03-31T04:55:52.748Z,73.10
2018-03-31T04:58:21.290Z,73.30
2018-03-31T05:00:49.058Z,73.30
2018-03-31T05:03:17.441Z,73.50
2018-03-31T05:05:44.959Z,73.60
2018-03-31T05:08:12.512Z,73.60
2018-03-31T05:10:40.288Z,73.80
2018-03-31T05:13:07.854Z,73.90
2018-03-31T05:15:35.636Z,74.00
2018-03-31T05:18:03.408Z,74.00
2018-03-31T05:20:31.177Z,74.00
2018-03-31T05:22:58.961Z,74.10
2018-03-31T05:25:26.496Z,74.40
2018-03-31T05:27:54.049Z,74.40
2018-03-31T05:30:21.820Z,74.50
2018-03-31T05:32:50.349Z,74.80
2018-03-31T05:35:18.139Z,74.70
2018-03-31T05:37:45.977Z,74.70
2018-03-31T05:40:14.301Z,75.20
2018-03-31T05:42:42.091Z,74.90
2018-03-31T05:45:09.881Z,75.70
2018-03-31T05:47:37.670Z,75.00
2018-03-31T05:50:05.433Z,75.80
2018-03-31T05:52:33.564Z,75.10
2018-03-31T05:55:02.108Z,75.20
2018-03-31T05:57:29.902Z,75.10
2018-03-31T05:59:57.666Z,75.20
2018-03-31T06:02:25.964Z,75.20
2018-03-31T06:04:55.486Z,75.50
2018-03-31T06:07:23.704Z,75.70
2018-03-31T06:09:52.420Z,76.30
2018-03-31T06:12:20.426Z,76.30
2018-03-31T06:14:48.226Z,76.90
2018-03-31T06:17:16.011Z,77.30
2018-03-31T06:19:45.406Z,77.70
2018-03-31T06:22:14.160Z,78.50
2018-03-31T06:24:42.990Z,78.50
2018-03-31T06:27:11.720Z,78.80
2018-03-31T06:29:39.863Z,79.00
2018-03-31T06:32:08.030Z,78.80
2018-03-31T06:34:36.014Z,78.80
2018-03-31T06:37:03.810Z,78.60
2018-03-31T06:39:32.573Z,78.70
2018-03-31T06:42:00.813Z,78.60
2018-03-31T06:44:29.854Z,78.40
2018-03-31T06:46:57.942Z,78.30
2018-03-31T06:49:27.550Z,77.90
2018-03-31T06:51:56.067Z,77.10
2018-03-31T06:54:23.899Z,77.00
2018-03-31T06:56:52.218Z,76.50
2018-03-31T06:59:19.974Z,76.40
2018-03-31T07:01:47.765Z,76.10
2018-03-31T07:04:15.543Z,76.10
2018-03-31T07:06:43.434Z,75.90
2018-03-31T07:09:11.268Z,76.10
2018-03-31T07:11:39.810Z,76.50
2018-03-31T07:14:07.599Z,76.50
2018-03-31T07:16:35.362Z,76.50
2018-03-31T07:19:03.332Z,76.60
2018-03-31T07:21:31.092Z,76.70
2018-03-31T07:23:59.681Z,76.40
2018-03-31T07:26:27.453Z,76.30
2018-03-31T07:28:55.263Z,76.10
2018-03-31T07:31:23.041Z,75.80
2018-03-31T07:33:50.840Z,75.30
2018-03-31T07:36:18.621Z,74.20
2018-03-31T07:38:47.769Z,74.00
2018-03-31T07:41:17.007Z,74.10
2018-03-31T07:43:44.869Z,74.00
2018-03-31T07:46:13.036Z,74.00
2018-03-31T07:48:41.586Z,74.00
2018-03-31T07:51:10.610Z,74.00
2018-03-31T07:53:38.526Z,74.20
2018-03-31T07:56:07.084Z,74.40
2018-03-31T07:58:34.923Z,74.20
2018-03-31T08:01:02.841Z,73.60
2018-03-31T08:03:31.541Z,73.60
2018-03-31T08:05:59.332Z,73.60
2018-03-31T08:08:27.110Z,73.80
2018-03-31T08:10:55.319Z,73.80
2018-03-31T08:13:23.928Z,73.40
2018-03-31T08:15:51.741Z,73.30
2018-03-31T08:18:19.502Z,73.00
2018-03-31T08:20:47.293Z,73.10
2018-03-31T08:23:15.080Z,73.40
2018-03-31T08:25:42.897Z,73.50
2018-03-31T08:28:10.673Z,73.10
2018-03-31T08:30:39.219Z,72.70
2018-03-31T08:33:07.007Z,72.50
2018-03-31T08:35:34.913Z,72.80
2018-03-31T08:38:03.461Z,73.30
2018-03-31T08:40:31.259Z,73.20
2018-03-31T08:42:58.808Z,74.00
2018-03-31T08:45:26.626Z,73.20
2018-03-31T08:47:54.205Z,72.70
2018-03-31T08:50:22.229Z,72.40
2018-03-31T08:52:50.051Z,72.20
2018-03-31T08:55:17.824Z,71.20
2018-03-31T08:57:45.716Z,70.70
2018-03-31T09:00:14.287Z,70.10
2018-03-31T09:02:42.070Z,70.00
2018-03-31T09:05:09.837Z,70.00
2018-03-31T09:07:37.623Z,68.90
2018-03-31T09:10:05.409Z,66.70
2018-03-31T09:12:33.230Z,67.40
2018-03-31T09:15:01.030Z,67.40
2018-03-31T09:17:28.821Z,67.30
2018-03-31T09:19:56.605Z,67.20
2018-03-31T09:22:24.170Z,66.80
2018-03-31T09:24:51.946Z,65.50
2018-03-31T09:27:19.791Z,65.30
2018-03-31T09:29:47.640Z,65.30
2018-03-31T09:32:16.174Z,64.60
2018-03-31T09:34:44.072Z,64.40
2018-03-31T09:37:11.852Z,65.00
2018-03-31T09:39:39.986Z,64.00
2018-03-31T09:42:08.529Z,63.50
2018-03-31T09:44:36.301Z,63.40
2018-03-31T09:47:04.073Z,63.80
2018-03-31T09:49:31.842Z,63.60
2018-03-31T09:51:59.642Z,62.70
2018-03-31T09:54:27.451Z,63.60
2018-03-31T09:56:55.552Z,62.90
2018-03-31T09:59:24.321Z,63.30
2018-03-31T10:01:52.112Z,63.10
2018-03-31T10:04:20.685Z,63.40
2018-03-31T10:06:48.461Z,63.20
2018-03-31T10:09:17.808Z,62.50
2018-03-31T10:11:46.372Z,61.90
2018-03-31T10:14:15.686Z,61.00
2018-03-31T10:16:43.484Z,60.60
2018-03-31T10:19:11.305Z,59.80
2018-03-31T10:21:39.103Z,60.60
2018-03-31T10:24:06.872Z,60.90
2018-03-31T10:26:34.828Z,59.60
2018-03-31T10:29:02.660Z,60.10
2018-03-31T10:31:30.457Z,59.70
2018-03-31T10:33:59.018Z,58.60
2018-03-31T10:36:26.937Z,58.40
2018-03-31T10:38:55.811Z,58.30
2018-03-31T10:41:23.699Z,58.20
2018-03-31T10:43:51.489Z,57.70
2018-03-31T10:46:19.268Z,58.30
2018-03-31T10:48:47.626Z,56.60
2018-03-31T10:51:15.426Z,56.50
2018-03-31T10:53:43.358Z,57.40
2018-03-31T10:56:11.262Z,56.30
2018-03-31T10:58:39.423Z,56.10
2018-03-31T11:01:08.176Z,56.80
2018-03-31T11:03:35.981Z,56.70
2018-03-31T11:06:04.540Z,56.70
2018-03-31T11:08:32.312Z,56.50
2018-03-31T11:11:00.100Z,55.90
2018-03-31T11:13:29.383Z,55.90
2018-03-31T11:15:57.205Z,55.80
2018-03-31T11:18:25.938Z,55.40
2018-03-31T11:20:53.689Z,55.30
2018-03-31T11:23:21.485Z,55.10
2018-03-31T11:25:49.467Z,55.20
2018-03-31T11:28:17.251Z,55.70
2018-03-31T11:30:45.082Z,56.70
2018-03-31T11:33:12.857Z,56.80
2018-03-31T11:35:40.723Z,56.40
2018-03-31T11:38:08.530Z,56.00
2018-03-31T11:40:37.087Z,56.10
2018-03-31T11:43:04.884Z,56.00
2018-03-31T11:45:32.666Z,56.60
2018-03-31T11:48:01.224Z,56.10
2018-03-31T11:50:29.021Z,55.30
2018-03-31T11:52:56.776Z,55.80
2018-03-31T11:55:24.564Z,55.60
2018-03-31T11:57:52.332Z,55.30
2018-03-31T12:00:20.929Z,54.20
2018-03-31T12:02:48.713Z,54.10
2018-03-31T12:05:16.497Z,54.20
2018-03-31T12:07:45.797Z,53.90
2018-03-31T12:10:13.378Z,53.70
2018-03-31T12:12:43.189Z,54.20
2018-03-31T12:15:11.025Z,53.30
2018-03-31T12:17:38.819Z,53.70
2018-03-31T12:20:07.499Z,53.60
2018-03-31T12:22:36.042Z,53.60
2018-03-31T12:25:04.099Z,53.50
2018-03-31T12:27:31.873Z,54.00
2018-03-31T12:29:59.696Z,54.70
2018-03-31T12:32:27.491Z,55.20
2018-03-31T12:34:56.027Z,54.80
2018-03-31T12:37:23.853Z,55.10
2018-03-31T12:39:51.632Z,55.50
2018-03-31T12:42:19.424Z,55.20
2018-03-31T12:44:48.019Z,54.20
2018-03-31T12:47:15.960Z,54.10
2018-03-31T12:49:43.756Z,54.50
2018-03-31T12:52:11.597Z,54.90
2018-03-31T12:54:40.308Z,55.50
2018-03-31T12:57:08.106Z,55.40
2018-03-31T12:59:35.866Z,53.10
2018-03-31T13:02:03.700Z,53.10
2018-03-31T13:04:31.517Z,53.40
2018-03-31T13:06:59.468Z,53.70
2018-03-31T13:09:27.269Z,52.60
2018-03-31T13:11:55.126Z,51.80
2018-03-31T13:14:22.661Z,52.80
2018-03-31T13:16:51.212Z,52.60
2018-03-31T13:19:19.003Z,52.40
2018-03-31T13:21:46.773Z,52.70
2018-03-31T13:24:14.560Z,52.90
2018-03-31T13:26:42.533Z,53.10
2018-03-31T13:29:11.133Z,52.50
2018-03-31T13:31:38.932Z,52.40
2018-03-31T13:34:06.709Z,51.80
2018-03-31T13:36:35.280Z,52.70
2018-03-31T13:39:03.227Z,52.60
2018-03-31T13:41:31.754Z,52.10
2018-03-31T13:43:59.527Z,52.00
2018-03-31T13:46:27.319Z,52.40
2018-03-31T13:48:55.092Z,53.10
2018-03-31T13:51:22.920Z,52.70
2018-03-31T13:53:50.697Z,52.80
2018-03-31T13:56:18.479Z,52.10
2018-03-31T13:58:46.267Z,51.60
2018-03-31T14:01:14.041Z,51.20
2018-03-31T14:03:41.842Z,51.40
2018-03-31T14:06:09.611Z,52.50
2018-03-31T14:08:37.387Z,52.20
2018-03-31T14:11:05.213Z,52.90
2018-03-31T14:13:33.756Z,52.60
2018-03-31T14:16:01.534Z,52.10
2018-03-31T14:18:29.341Z,53.00
2018-03-31T14:20:57.117Z,52.80
2018-03-31T14:23:24.899Z,52.80
2018-03-31T14:25:52.676Z,52.50
2018-03-31T14:28:20.498Z,52.30
2018-03-31T14:30:48.269Z,53.30
2018-03-31T14:33:16.059Z,52.00
2018-03-31T14:35:43.928Z,52.40
2018-03-31T14:38:11.468Z,52.30
2018-03-31T14:40:40.040Z,52.20
2018-03-31T14:43:07.814Z,52.10
2018-03-31T14:45:37.105Z,52.10
2018-03-31T14:48:04.944Z,51.80
2018-03-31T14:50:33.477Z,52.40
2018-03-31T14:53:01.253Z,52.20
2018-03-31T14:55:29.115Z,52.30
2018-03-31T14:57:57.139Z,52.20
2018-03-31T15:00:25.937Z,52.40
2018-03-31T15:02:53.722Z,52.20
2018-03-31T15:05:22.116Z,51.70
2018-03-31T15:07:50.483Z,52.30
2018-03-31T15:10:18.053Z,52.70
2018-03-31T15:12:45.960Z,52.90
2018-03-31T15:15:14.126Z,53.60
2018-03-31T15:17:41.921Z,52.70
2018-03-31T15:20:11.142Z,52.10
2018-03-31T15:22:39.716Z,51.50
2018-03-31T15:25:07.656Z,51.40
2018-03-31T15:27:37.235Z,51.20
2018-03-31T15:30:04.996Z,51.50
2018-03-31T15:32:32.857Z,51.10
2018-03-31T15:35:00.715Z,51.50
2018-03-31T15:37:28.493Z,46.70
2018-03-31T15:39:56.293Z,45.90
2018-03-31T15:42:24.269Z,44.90
2018-03-31T15:44:52.088Z,47.40
2018-03-31T15:47:20.628Z,47.30
2018-03-31T15:49:48.644Z,47.20
2018-03-31T15:52:16.462Z,47.60
2018-03-31T15:54:44.252Z,48.30
2018-03-31T15:57:11.781Z,48.30
2018-03-31T15:59:40.316Z,47.80
2018-03-31T16:02:08.141Z,47.70
2018-03-31T16:04:35.907Z,48.00
2018-03-31T16:07:05.239Z,47.80
2018-03-31T16:09:33.005Z,47.60
2018-03-31T16:12:01.016Z,48.90
2018-03-31T16:14:29.235Z,49.00
2018-03-31T16:16:57.013Z,47.10
2018-03-31T16:19:24.808Z,45.80
2018-03-31T16:21:52.589Z,46.90
2018-03-31T16:24:20.356Z,46.90
2018-03-31T16:26:47.906Z,47.00
2018-03-31T16:29:15.662Z,46.10
2018-03-31T16:31:44.216Z,46.60
2018-03-31T16:34:12.001Z,46.60
2018-03-31T16:36:39.778Z,47.70
2018-03-31T16:39:07.578Z,47.70
2018-03-31T16:41:36.112Z,47.70
2018-03-31T16:44:03.992Z,47.60
2018-03-31T16:46:31.731Z,46.40
2018-03-31T16:48:59.528Z,47.40
2018-03-31T16:51:27.298Z,46.50
2018-03-31T16:53:55.081Z,46.90
2018-03-31T16:56:22.967Z,46.40
2018-03-31T16:58:50.716Z,46.50
2018-03-31T17:01:19.339Z,46.50
2018-03-31T17:03:47.093Z,46.40
2018-03-31T17:06:15.132Z,47.10
2018-03-31T17:08:43.717Z,47.90
2018-03-31T17:11:11.502Z,47.40
2018-03-31T17:13:39.278Z,47.20
2018-03-31T17:16:07.039Z,47.60
2018-03-31T17:18:35.600Z,48.40
2018-03-31T17:21:04.168Z,48.80
2018-03-31T17:23:32.709Z,49.60
2018-03-31T17:26:00.710Z,49.00
2018-03-31T17:28:28.481Z,49.40
2018-03-31T17:30:56.292Z,49.50
2018-03-31T17:33:24.069Z,49.70
2018-03-31T17:35:51.920Z,49.80
2018-03-31T17:38:19.708Z,49.90
2018-03-31T17:40:47.689Z,50.40
2018-03-31T17:43:16.281Z,50.70
2018-03-31T17:45:44.184Z,50.60
2018-03-31T17:48:12.752Z,51.30
2018-03-31T17:50:40.537Z,51.30
2018-03-31T17:53:08.334Z,51.60
2018-03-31T17:55:36.888Z,52.20
2018-03-31T17:58:04.755Z,52.20
2018-03-31T18:00:33.265Z,52.50
2018-03-31T18:03:01.060Z,52.40
2018-03-31T18:05:28.821Z,52.60
2018-03-31T18:07:56.609Z,52.70
2018-03-31T18:10:24.397Z,52.60
2018-03-31T18:12:52.185Z,52.00
2018-03-31T18:15:20.937Z,52.30
2018-03-31T18:17:48.724Z,52.20
2018-03-31T18:20:16.472Z,52.60
2018-03-31T18:22:45.052Z,53.60
2018-03-31T18:25:12.944Z,53.60
2018-03-31T18:27:40.757Z,54.50
2018-03-31T18:30:08.563Z,55.10
2018-03-31T18:32:36.381Z,55.70
2018-03-31T18:35:04.167Z,56.30
2018-03-31T18:37:31.925Z,57.10
2018-03-31T18:39:59.693Z,57.70
2018-03-31T18:42:28.271Z,58.80
2018-03-31T18:44:56.049Z,58.80
2018-03-31T18:47:23.818Z,59.40
2018-03-31T18:49:52.357Z,59.90
2018-03-31T18:52:20.874Z,60.60
2018-03-31T18:54:48.825Z,61.10
2018-03-31T18:57:16.592Z,61.90
2018-03-31T18:59:44.408Z,62.30
2018-03-31T19:02:12.237Z,62.90
2018-03-31T19:04:40.050Z,63.50
2018-03-31T19:07:08.516Z,64.00
2018-03-31T19:09:36.518Z,64.10
2018-03-31T19:12:04.276Z,64.40
2018-03-31T19:14:32.619Z,64.90
2018-03-31T19:17:06.767Z,66.30
2018-03-31T19:19:35.348Z,66.20
2018-03-31T19:22:03.289Z,66.20
2018-03-31T19:24:30.997Z,66.50
2018-03-31T19:27:00.067Z,67.20
2018-03-31T19:29:27.908Z,67.10
2018-03-31T19:31:55.657Z,67.10
2018-03-31T19:34:23.522Z,67.40
2018-03-31T19:36:52.209Z,68.50
2018-03-31T19:39:25.541Z,67.70
2018-03-31T19:41:53.425Z,67.80
2018-03-31T19:44:21.426Z,68.10
2018-03-31T19:46:49.185Z,68.20
2018-03-31T19:49:16.960Z,68.40
2018-03-31T19:51:46.261Z,68.70
2018-03-31T19:54:14.058Z,68.70
2018-03-31T19:56:41.844Z,69.40
2018-03-31T19:59:10.382Z,69.10
2018-03-31T20:01:38.161Z,69.10
2018-03-31T20:04:06.109Z,69.10
2018-03-31T20:06:34.671Z,69.20
2018-03-31T20:09:02.433Z,69.20
2018-03-31T20:11:30.223Z,69.20
2018-03-31T20:13:58.005Z,69.20
2018-03-31T20:16:27.280Z,69.30
2018-03-31T20:18:55.049Z,69.20
2018-03-31T20:21:22.828Z,69.10
2018-03-31T20:23:50.710Z,69.30
2018-03-31T20:26:19.227Z,69.20
2018-03-31T20:28:47.192Z,69.30
2018-03-31T20:31:14.969Z,69.30
2018-03-31T20:33:42.773Z,69.50
2018-03-31T20:36:10.546Z,69.70
2018-03-31T20:38:38.352Z,69.80
2018-03-31T20:41:06.877Z,69.90
2018-03-31T20:43:34.654Z,69.90
2018-03-31T20:46:02.426Z,70.10
2018-03-31T20:48:30.216Z,70.30
2018-03-31T20:50:57.763Z,70.40
2018-03-31T20:53:26.318Z,70.70
2018-03-31T20:55:54.092Z,70.70
2018-03-31T20:58:21.938Z,70.50
2018-03-31T21:00:49.700Z,70.60
2018-03-31T21:03:17.464Z,70.90
2018-03-31T21:05:46.017Z,70.90
2018-03-31T21:08:13.816Z,70.80
2018-03-31T21:10:41.711Z,70.80
2018-03-31T21:13:10.244Z,70.90
2018-03-31T21:15:38.035Z,70.90
2018-03-31T21:18:05.794Z,70.70
2018-03-31T21:20:33.586Z,70.70
2018-03-31T21:23:01.336Z,70.90
2018-03-31T21:25:29.130Z,70.90
2018-03-31T21:27:56.905Z,70.90
2018-03-31T21:30:24.673Z,71.00
2018-03-31T21:32:52.470Z,71.00
2018-03-31T21:35:20.240Z,71.00
2018-03-31T21:37:48.029Z,70.90
2018-03-31T21:40:15.840Z,71.00
2018-03-31T21:42:45.304Z,71.20
2018-03-31T21:45:13.125Z,71.10
2018-03-31T21:47:40.914Z,71.40
2018-03-31T21:50:08.675Z,71.40
2018-03-31T21:52:36.512Z,72.10
2018-03-31T21:55:04.280Z,70.90
2018-03-31T21:57:32.044Z,71.50
2018-03-31T21:59:59.888Z,71.60
2018-03-31T22:02:27.648Z,71.70
2018-03-31T22:04:55.427Z,71.80
2018-03-31T22:07:23.260Z,72.00
2018-03-31T22:09:51.866Z,71.90
2018-03-31T22:12:19.603Z,71.80
2018-03-31T22:14:53.573Z,71.70
2018-03-31T22:17:21.420Z,71.70
2018-03-31T22:19:49.185Z,71.60
2018-03-31T22:22:17.719Z,71.60
2018-03-31T22:24:45.503Z,71.50
2018-03-31T22:27:13.293Z,71.60
2018-03-31T22:29:41.099Z,71.70
2018-03-31T22:32:09.652Z,71.80
2018-03-31T22:34:37.498Z,71.80
2018-03-31T22:37:05.310Z,71.80
2018-03-31T22:39:33.050Z,71.90
2018-03-31T22:42:00.832Z,71.90
2018-03-31T22:44:28.613Z,71.80
2018-03-31T22:46:56.392Z,71.80
2018-03-31T22:49:24.228Z,71.80
2018-03-31T22:51:52.020Z,71.80
2018-03-31T22:54:20.569Z,71.80
2018-03-31T22:56:48.346Z,71.70
2018-03-31T22:59:16.332Z,71.80
2018-03-31T23:01:44.100Z,72.00
2018-03-31T23:04:12.432Z,72.00
2018-03-31T23:06:41.739Z,72.00
2018-03-31T23:09:10.041Z,72.00
2018-03-31T23:11:40.622Z,71.70
2018-03-31T23:14:09.160Z,71.70
2018-03-31T23:16:37.265Z,71.40
2018-03-31T23:19:05.380Z,71.30
2018-03-31T23:21:33.701Z,71.30
2018-03-31T23:24:02.435Z,71.20
2018-03-31T23:26:30.733Z,71.20
2018-03-31T23:28:59.236Z,71.20
2018-03-31T23:31:27.537Z,71.20
2018-03-31T23:33:55.835Z,71.20
2018-03-31T23:36:24.120Z,71.20
2018-03-31T23:38:51.908Z,71.30
2018-03-31T23:41:19.876Z,71.30
2018-03-31T23:43:47.652Z,71.10
2018-03-31T23:46:15.423Z,71.30
2018-03-31T23:48:43.307Z,71.20
2018-03-31T23:51:11.072Z,71.30
2018-03-31T23:53:38.851Z,71.40
2018-03-31T23:56:06.615Z,71.40
2018-03-31T23:58:34.392Z,71.40
